sensor_id;sensor_type;location;lat;lon;timestamp;P1;durP1;ratioP1;P2;durP2;ratioP2
69629;SDS011;56857;52.212;5.496;2022-08-11T00:00:37;8.40;;;2.90;;
69629;SDS011;56857;52.212;5.496;2022-08-11T00:03:06;7.07;;;2.92;;
69629;SDS011;56857;52.212;5.496;2022-08-11T00:05:46;7.22;;;3.00;;
69629;SDS011;56857;52.212;5.496;2022-08-11T00:08:21;7.03;;;2.90;;
69629;SDS011;56857;52.212;5.496;2022-08-11T00:10:50;6.70;;;3.00;;
69629;SDS011;56857;52.212;5.496;2022-08-11T00:13:20;7.07;;;3.13;;
69629;SDS011;56857;52.212;5.496;2022-08-11T00:15:47;6.30;;;2.80;;
69629;SDS011;56857;52.212;5.496;2022-08-11T00:18:13;8.70;;;3.53;;
69629;SDS011;56857;52.212;5.496;2022-08-11T00:20:41;7.53;;;3.20;;
69629;SDS011;56857;52.212;5.496;2022-08-11T00:23:09;8.07;;;3.10;;
69629;SDS011;56857;52.212;5.496;2022-08-11T00:25:38;7.65;;;2.95;;
69629;SDS011;56857;52.212;5.496;2022-08-11T00:28:21;7.45;;;2.95;;
69629;SDS011;56857;52.212;5.496;2022-08-11T00:30:51;6.45;;;2.58;;
69629;SDS011;56857;52.212;5.496;2022-08-11T00:33:19;9.30;;;3.08;;
69629;SDS011;56857;52.212;5.496;2022-08-11T00:35:47;7.75;;;3.03;;
69629;SDS011;56857;52.212;5.496;2022-08-11T00:38:14;6.47;;;3.08;;
69629;SDS011;56857;52.212;5.496;2022-08-11T00:40:49;6.90;;;2.90;;
69629;SDS011;56857;52.212;5.496;2022-08-11T00:43:21;6.53;;;3.13;;
69629;SDS011;56857;52.212;5.496;2022-08-11T00:46:05;8.20;;;3.50;;
69629;SDS011;56857;52.212;5.496;2022-08-11T00:48:42;5.82;;;2.80;;
69629;SDS011;56857;52.212;5.496;2022-08-11T00:51:24;7.70;;;3.22;;
69629;SDS011;56857;52.212;5.496;2022-08-11T01:00:10;6.43;;;3.10;;
69629;SDS011;56857;52.212;5.496;2022-08-11T01:02:56;7.43;;;3.05;;
69629;SDS011;56857;52.212;5.496;2022-08-11T01:46:48;7.55;;;3.97;;
69629;SDS011;56857;52.212;5.496;2022-08-11T01:49:31;5.80;;;3.20;;
69629;SDS011;56857;52.212;5.496;2022-08-11T01:54:58;7.75;;;3.92;;
69629;SDS011;56857;52.212;5.496;2022-08-11T02:01:09;8.45;;;3.70;;
69629;SDS011;56857;52.212;5.496;2022-08-11T02:03:34;7.50;;;3.65;;
69629;SDS011;56857;52.212;5.496;2022-08-11T02:11:32;8.00;;;4.05;;
69629;SDS011;56857;52.212;5.496;2022-08-11T02:16:58;8.95;;;4.63;;
69629;SDS011;56857;52.212;5.496;2022-08-11T02:25:06;8.10;;;4.20;;
69629;SDS011;56857;52.212;5.496;2022-08-11T02:27:43;8.20;;;4.13;;
69629;SDS011;56857;52.212;5.496;2022-08-11T02:30:14;7.93;;;3.80;;
69629;SDS011;56857;52.212;5.496;2022-08-11T02:38:50;7.50;;;4.20;;
69629;SDS011;56857;52.212;5.496;2022-08-11T02:41:35;9.88;;;4.50;;
69629;SDS011;56857;52.212;5.496;2022-08-11T02:47:08;10.63;;;4.50;;
69629;SDS011;56857;52.212;5.496;2022-08-11T02:50:04;9.65;;;4.35;;
69629;SDS011;56857;52.212;5.496;2022-08-11T02:52:51;7.55;;;4.43;;
69629;SDS011;56857;52.212;5.496;2022-08-11T02:55:56;6.32;;;3.33;;
69629;SDS011;56857;52.212;5.496;2022-08-11T02:58:32;8.57;;;4.07;;
69629;SDS011;56857;52.212;5.496;2022-08-11T03:01:15;9.18;;;4.20;;
69629;SDS011;56857;52.212;5.496;2022-08-11T03:09:46;8.07;;;3.85;;
69629;SDS011;56857;52.212;5.496;2022-08-11T03:12:29;9.82;;;3.80;;
69629;SDS011;56857;52.212;5.496;2022-08-11T03:21:12;10.07;;;4.72;;
69629;SDS011;56857;52.212;5.496;2022-08-11T03:23:40;7.68;;;4.15;;
69629;SDS011;56857;52.212;5.496;2022-08-11T03:26:21;9.07;;;4.28;;
69629;SDS011;56857;52.212;5.496;2022-08-11T03:29:18;7.15;;;3.83;;
69629;SDS011;56857;52.212;5.496;2022-08-11T03:31:58;9.77;;;4.20;;
69629;SDS011;56857;52.212;5.496;2022-08-11T03:34:45;9.07;;;4.82;;
69629;SDS011;56857;52.212;5.496;2022-08-11T03:40:11;11.40;;;4.53;;
69629;SDS011;56857;52.212;5.496;2022-08-11T03:42:56;7.28;;;4.30;;
69629;SDS011;56857;52.212;5.496;2022-08-11T03:45:42;9.38;;;4.78;;
69629;SDS011;56857;52.212;5.496;2022-08-11T03:50:53;7.65;;;3.78;;
69629;SDS011;56857;52.212;5.496;2022-08-11T03:56:18;8.73;;;4.07;;
69629;SDS011;56857;52.212;5.496;2022-08-11T04:07:37;8.82;;;4.95;;
69629;SDS011;56857;52.212;5.496;2022-08-11T04:27:06;7.18;;;3.63;;
69629;SDS011;56857;52.212;5.496;2022-08-11T04:32:37;8.60;;;4.25;;
69629;SDS011;56857;52.212;5.496;2022-08-11T04:35:26;7.10;;;3.67;;
69629;SDS011;56857;52.212;5.496;2022-08-11T04:38:07;6.85;;;4.00;;
69629;SDS011;56857;52.212;5.496;2022-08-11T04:57:21;7.03;;;3.78;;
69629;SDS011;56857;52.212;5.496;2022-08-11T05:00:03;13.18;;;4.72;;
69629;SDS011;56857;52.212;5.496;2022-08-11T05:02:56;7.57;;;4.25;;
69629;SDS011;56857;52.212;5.496;2022-08-11T05:05:58;8.45;;;4.22;;
69629;SDS011;56857;52.212;5.496;2022-08-11T05:11:34;10.50;;;4.68;;
69629;SDS011;56857;52.212;5.496;2022-08-11T05:14:19;13.73;;;5.25;;
69629;SDS011;56857;52.212;5.496;2022-08-11T05:16:53;12.18;;;4.85;;
69629;SDS011;56857;52.212;5.496;2022-08-11T05:19:30;7.78;;;4.15;;
69629;SDS011;56857;52.212;5.496;2022-08-11T05:21:56;8.68;;;4.43;;
69629;SDS011;56857;52.212;5.496;2022-08-11T05:24:23;8.10;;;4.28;;
69629;SDS011;56857;52.212;5.496;2022-08-11T05:26:54;8.27;;;4.53;;
69629;SDS011;56857;52.212;5.496;2022-08-11T05:29:24;8.13;;;4.38;;
69629;SDS011;56857;52.212;5.496;2022-08-11T05:31:55;12.07;;;5.35;;
69629;SDS011;56857;52.212;5.496;2022-08-11T05:34:25;12.27;;;5.38;;
69629;SDS011;56857;52.212;5.496;2022-08-11T05:36:53;8.65;;;4.60;;
69629;SDS011;56857;52.212;5.496;2022-08-11T05:39:25;9.60;;;4.15;;
69629;SDS011;56857;52.212;5.496;2022-08-11T05:41:56;9.20;;;4.60;;
69629;SDS011;56857;52.212;5.496;2022-08-11T05:44:23;9.57;;;4.82;;
69629;SDS011;56857;52.212;5.496;2022-08-11T05:46:51;11.63;;;5.45;;
69629;SDS011;56857;52.212;5.496;2022-08-11T05:49:17;11.02;;;5.60;;
69629;SDS011;56857;52.212;5.496;2022-08-11T05:51:43;8.98;;;5.18;;
69629;SDS011;56857;52.212;5.496;2022-08-11T05:54:09;11.23;;;4.82;;
69629;SDS011;56857;52.212;5.496;2022-08-11T05:56:42;8.05;;;4.40;;
69629;SDS011;56857;52.212;5.496;2022-08-11T05:59:13;8.32;;;4.50;;
69629;SDS011;56857;52.212;5.496;2022-08-11T06:01:42;7.82;;;4.50;;
69629;SDS011;56857;52.212;5.496;2022-08-11T06:04:07;7.72;;;4.65;;
69629;SDS011;56857;52.212;5.496;2022-08-11T06:06:52;8.00;;;4.43;;
69629;SDS011;56857;52.212;5.496;2022-08-11T06:09:25;10.10;;;4.43;;
69629;SDS011;56857;52.212;5.496;2022-08-11T06:12:16;8.88;;;4.40;;
69629;SDS011;56857;52.212;5.496;2022-08-11T06:14:45;8.38;;;4.13;;
69629;SDS011;56857;52.212;5.496;2022-08-11T06:17:13;9.75;;;4.57;;
69629;SDS011;56857;52.212;5.496;2022-08-11T06:19:48;8.68;;;4.57;;
69629;SDS011;56857;52.212;5.496;2022-08-11T06:22:18;9.05;;;4.07;;
69629;SDS011;56857;52.212;5.496;2022-08-11T06:25:07;8.63;;;5.30;;
69629;SDS011;56857;52.212;5.496;2022-08-11T06:27:34;8.20;;;5.03;;
69629;SDS011;56857;52.212;5.496;2022-08-11T06:30:03;9.15;;;4.95;;
69629;SDS011;56857;52.212;5.496;2022-08-11T06:32:33;9.45;;;5.57;;
69629;SDS011;56857;52.212;5.496;2022-08-11T06:35:02;7.78;;;3.95;;
69629;SDS011;56857;52.212;5.496;2022-08-11T06:43:18;12.05;;;5.38;;
69629;SDS011;56857;52.212;5.496;2022-08-11T06:46:01;9.43;;;4.28;;
69629;SDS011;56857;52.212;5.496;2022-08-11T06:48:31;10.73;;;4.95;;
69629;SDS011;56857;52.212;5.496;2022-08-11T06:51:05;10.38;;;5.30;;
69629;SDS011;56857;52.212;5.496;2022-08-11T06:53:33;12.07;;;5.80;;
69629;SDS011;56857;52.212;5.496;2022-08-11T06:56:02;11.55;;;5.43;;
69629;SDS011;56857;52.212;5.496;2022-08-11T06:58:30;10.40;;;5.65;;
69629;SDS011;56857;52.212;5.496;2022-08-11T07:00:57;12.35;;;5.05;;
69629;SDS011;56857;52.212;5.496;2022-08-11T07:03:30;9.50;;;5.80;;
69629;SDS011;56857;52.212;5.496;2022-08-11T07:06:05;11.85;;;5.78;;
69629;SDS011;56857;52.212;5.496;2022-08-11T07:14:18;12.30;;;5.32;;
69629;SDS011;56857;52.212;5.496;2022-08-11T07:16:47;11.40;;;5.57;;
69629;SDS011;56857;52.212;5.496;2022-08-11T07:19:33;9.73;;;4.43;;
69629;SDS011;56857;52.212;5.496;2022-08-11T07:22:01;11.32;;;5.07;;
69629;SDS011;56857;52.212;5.496;2022-08-11T07:24:29;10.38;;;4.85;;
69629;SDS011;56857;52.212;5.496;2022-08-11T07:26:59;12.13;;;5.75;;
69629;SDS011;56857;52.212;5.496;2022-08-11T07:29:26;13.02;;;4.47;;
69629;SDS011;56857;52.212;5.496;2022-08-11T07:31:56;10.52;;;4.90;;
69629;SDS011;56857;52.212;5.496;2022-08-11T07:34:27;8.13;;;4.28;;
69629;SDS011;56857;52.212;5.496;2022-08-11T07:36:59;9.57;;;3.80;;
69629;SDS011;56857;52.212;5.496;2022-08-11T07:39:31;8.63;;;3.78;;
69629;SDS011;56857;52.212;5.496;2022-08-11T07:41:58;7.82;;;3.08;;
69629;SDS011;56857;52.212;5.496;2022-08-11T07:44:29;10.63;;;3.50;;
69629;SDS011;56857;52.212;5.496;2022-08-11T07:46:55;6.75;;;3.05;;
69629;SDS011;56857;52.212;5.496;2022-08-11T07:49:21;7.50;;;3.13;;
69629;SDS011;56857;52.212;5.496;2022-08-11T07:51:47;7.80;;;3.13;;
69629;SDS011;56857;52.212;5.496;2022-08-11T07:54:13;8.10;;;3.22;;
69629;SDS011;56857;52.212;5.496;2022-08-11T07:56:39;6.57;;;2.75;;
69629;SDS011;56857;52.212;5.496;2022-08-11T07:59:05;7.78;;;2.83;;
69629;SDS011;56857;52.212;5.496;2022-08-11T08:01:30;7.97;;;2.70;;
69629;SDS011;56857;52.212;5.496;2022-08-11T08:03:57;6.72;;;2.42;;
69629;SDS011;56857;52.212;5.496;2022-08-11T08:06:24;8.88;;;3.42;;
69629;SDS011;56857;52.212;5.496;2022-08-11T08:08:51;9.13;;;3.50;;
69629;SDS011;56857;52.212;5.496;2022-08-11T08:11:19;10.48;;;3.50;;
69629;SDS011;56857;52.212;5.496;2022-08-11T08:13:45;6.03;;;2.85;;
69629;SDS011;56857;52.212;5.496;2022-08-11T08:16:12;5.85;;;2.53;;
69629;SDS011;56857;52.212;5.496;2022-08-11T08:18:38;5.68;;;2.78;;
69629;SDS011;56857;52.212;5.496;2022-08-11T08:21:05;6.38;;;2.70;;
69629;SDS011;56857;52.212;5.496;2022-08-11T08:23:32;9.20;;;2.80;;
69629;SDS011;56857;52.212;5.496;2022-08-11T08:25:58;5.82;;;2.35;;
69629;SDS011;56857;52.212;5.496;2022-08-11T08:28:27;5.78;;;2.60;;
69629;SDS011;56857;52.212;5.496;2022-08-11T08:30:54;8.65;;;3.00;;
69629;SDS011;56857;52.212;5.496;2022-08-11T08:33:28;6.97;;;2.97;;
69629;SDS011;56857;52.212;5.496;2022-08-11T08:35:56;5.70;;;2.38;;
69629;SDS011;56857;52.212;5.496;2022-08-11T08:38:26;8.98;;;2.75;;
69629;SDS011;56857;52.212;5.496;2022-08-11T08:40:52;7.18;;;2.63;;
69629;SDS011;56857;52.212;5.496;2022-08-11T08:43:18;7.32;;;3.08;;
69629;SDS011;56857;52.212;5.496;2022-08-11T08:45:46;5.68;;;2.80;;
69629;SDS011;56857;52.212;5.496;2022-08-11T08:48:13;6.65;;;2.88;;
69629;SDS011;56857;52.212;5.496;2022-08-11T08:50:44;7.55;;;2.95;;
69629;SDS011;56857;52.212;5.496;2022-08-11T08:53:16;5.93;;;2.70;;
69629;SDS011;56857;52.212;5.496;2022-08-11T08:55:49;7.80;;;3.05;;
69629;SDS011;56857;52.212;5.496;2022-08-11T08:58:15;7.97;;;2.65;;
69629;SDS011;56857;52.212;5.496;2022-08-11T09:00:44;5.97;;;2.40;;
69629;SDS011;56857;52.212;5.496;2022-08-11T09:03:13;5.85;;;2.60;;
69629;SDS011;56857;52.212;5.496;2022-08-11T09:05:39;6.13;;;2.65;;
69629;SDS011;56857;52.212;5.496;2022-08-11T09:08:05;6.43;;;3.00;;
69629;SDS011;56857;52.212;5.496;2022-08-11T09:10:31;5.10;;;2.60;;
69629;SDS011;56857;52.212;5.496;2022-08-11T09:12:58;6.95;;;2.55;;
69629;SDS011;56857;52.212;5.496;2022-08-11T09:15:24;6.05;;;2.65;;
69629;SDS011;56857;52.212;5.496;2022-08-11T09:17:52;5.63;;;2.47;;
69629;SDS011;56857;52.212;5.496;2022-08-11T09:22:51;11.48;;;3.50;;
69629;SDS011;56857;52.212;5.496;2022-08-11T09:25:21;16.17;;;3.83;;
69629;SDS011;56857;52.212;5.496;2022-08-11T09:27:49;10.23;;;2.75;;
69629;SDS011;56857;52.212;5.496;2022-08-11T09:30:17;7.43;;;2.53;;
69629;SDS011;56857;52.212;5.496;2022-08-11T09:32:44;11.80;;;3.13;;
69629;SDS011;56857;52.212;5.496;2022-08-11T09:35:09;13.07;;;2.83;;
69629;SDS011;56857;52.212;5.496;2022-08-11T09:37:35;12.98;;;3.20;;
69629;SDS011;56857;52.212;5.496;2022-08-11T09:40:01;7.22;;;2.75;;
69629;SDS011;56857;52.212;5.496;2022-08-11T09:42:28;6.45;;;2.42;;
69629;SDS011;56857;52.212;5.496;2022-08-11T09:44:53;7.40;;;2.88;;
69629;SDS011;56857;52.212;5.496;2022-08-11T09:47:20;7.47;;;2.88;;
69629;SDS011;56857;52.212;5.496;2022-08-11T09:49:46;8.95;;;2.40;;
69629;SDS011;56857;52.212;5.496;2022-08-11T09:52:12;6.35;;;2.80;;
69629;SDS011;56857;52.212;5.496;2022-08-11T09:54:39;8.75;;;2.70;;
69629;SDS011;56857;52.212;5.496;2022-08-11T09:57:06;5.55;;;2.67;;
69629;SDS011;56857;52.212;5.496;2022-08-11T09:59:32;6.32;;;2.25;;
69629;SDS011;56857;52.212;5.496;2022-08-11T10:01:58;8.63;;;2.33;;
69629;SDS011;56857;52.212;5.496;2022-08-11T10:05:00;8.32;;;2.78;;
69629;SDS011;56857;52.212;5.496;2022-08-11T10:07:20;7.63;;;2.47;;
69629;SDS011;56857;52.212;5.496;2022-08-11T10:12:37;9.60;;;2.40;;
69629;SDS011;56857;52.212;5.496;2022-08-11T10:15:07;6.60;;;2.35;;
69629;SDS011;56857;52.212;5.496;2022-08-11T10:17:34;5.18;;;2.17;;
69629;SDS011;56857;52.212;5.496;2022-08-11T10:20:03;19.70;;;2.40;;
69629;SDS011;56857;52.212;5.496;2022-08-11T10:22:32;8.50;;;2.35;;
69629;SDS011;56857;52.212;5.496;2022-08-11T10:24:59;8.55;;;2.25;;
69629;SDS011;56857;52.212;5.496;2022-08-11T10:27:26;6.40;;;2.30;;
69629;SDS011;56857;52.212;5.496;2022-08-11T10:29:52;6.10;;;2.05;;
69629;SDS011;56857;52.212;5.496;2022-08-11T10:32:22;5.55;;;2.00;;
69629;SDS011;56857;52.212;5.496;2022-08-11T10:34:50;5.35;;;2.08;;
69629;SDS011;56857;52.212;5.496;2022-08-11T10:37:16;5.88;;;1.95;;
69629;SDS011;56857;52.212;5.496;2022-08-11T10:39:44;7.82;;;2.00;;
69629;SDS011;56857;52.212;5.496;2022-08-11T10:42:10;5.88;;;1.80;;
69629;SDS011;56857;52.212;5.496;2022-08-11T10:44:37;6.65;;;2.20;;
69629;SDS011;56857;52.212;5.496;2022-08-11T10:47:05;4.18;;;1.90;;
69629;SDS011;56857;52.212;5.496;2022-08-11T10:49:32;7.30;;;2.10;;
69629;SDS011;56857;52.212;5.496;2022-08-11T10:51:57;7.75;;;2.03;;
69629;SDS011;56857;52.212;5.496;2022-08-11T10:54:24;4.60;;;1.70;;
69629;SDS011;56857;52.212;5.496;2022-08-11T10:56:50;5.40;;;1.63;;
69629;SDS011;56857;52.212;5.496;2022-08-11T10:59:18;7.90;;;1.83;;
69629;SDS011;56857;52.212;5.496;2022-08-11T11:01:44;4.93;;;1.73;;
69629;SDS011;56857;52.212;5.496;2022-08-11T11:04:11;5.57;;;1.88;;
69629;SDS011;56857;52.212;5.496;2022-08-11T11:06:45;3.58;;;1.60;;
69629;SDS011;56857;52.212;5.496;2022-08-11T11:12:12;8.85;;;1.80;;
69629;SDS011;56857;52.212;5.496;2022-08-11T11:14:43;4.03;;;1.40;;
69629;SDS011;56857;52.212;5.496;2022-08-11T11:17:09;6.05;;;1.70;;
69629;SDS011;56857;52.212;5.496;2022-08-11T11:19:37;4.80;;;1.60;;
69629;SDS011;56857;52.212;5.496;2022-08-11T11:22:03;4.00;;;1.83;;
69629;SDS011;56857;52.212;5.496;2022-08-11T11:24:33;4.55;;;1.70;;
69629;SDS011;56857;52.212;5.496;2022-08-11T11:30:14;5.35;;;1.65;;
69629;SDS011;56857;52.212;5.496;2022-08-11T11:35:48;4.68;;;1.75;;
69629;SDS011;56857;52.212;5.496;2022-08-11T11:38:36;4.13;;;1.50;;
69629;SDS011;56857;52.212;5.496;2022-08-11T11:41:02;4.32;;;1.55;;
69629;SDS011;56857;52.212;5.496;2022-08-11T11:43:28;3.53;;;1.42;;
69629;SDS011;56857;52.212;5.496;2022-08-11T11:45:53;7.82;;;1.58;;
69629;SDS011;56857;52.212;5.496;2022-08-11T11:48:19;6.43;;;1.50;;
69629;SDS011;56857;52.212;5.496;2022-08-11T11:50:44;5.28;;;1.65;;
69629;SDS011;56857;52.212;5.496;2022-08-11T11:53:10;2.95;;;1.42;;
69629;SDS011;56857;52.212;5.496;2022-08-11T11:55:37;3.35;;;1.50;;
69629;SDS011;56857;52.212;5.496;2022-08-11T11:58:03;10.23;;;1.90;;
69629;SDS011;56857;52.212;5.496;2022-08-11T12:00:29;3.95;;;1.50;;
69629;SDS011;56857;52.212;5.496;2022-08-11T12:02:55;5.28;;;1.73;;
69629;SDS011;56857;52.212;5.496;2022-08-11T12:05:23;6.53;;;1.60;;
69629;SDS011;56857;52.212;5.496;2022-08-11T12:07:50;5.40;;;1.50;;
69629;SDS011;56857;52.212;5.496;2022-08-11T12:10:17;4.20;;;1.50;;
69629;SDS011;56857;52.212;5.496;2022-08-11T12:12:43;3.53;;;1.42;;
69629;SDS011;56857;52.212;5.496;2022-08-11T12:15:10;5.53;;;1.70;;
69629;SDS011;56857;52.212;5.496;2022-08-11T12:17:36;5.93;;;1.60;;
69629;SDS011;56857;52.212;5.496;2022-08-11T12:20:02;6.10;;;1.80;;
69629;SDS011;56857;52.212;5.496;2022-08-11T12:22:29;5.65;;;1.60;;
69629;SDS011;56857;52.212;5.496;2022-08-11T12:24:55;3.78;;;1.35;;
69629;SDS011;56857;52.212;5.496;2022-08-11T12:27:21;3.50;;;1.52;;
69629;SDS011;56857;52.212;5.496;2022-08-11T12:29:50;3.70;;;1.52;;
69629;SDS011;56857;52.212;5.496;2022-08-11T12:32:18;6.55;;;1.40;;
69629;SDS011;56857;52.212;5.496;2022-08-11T12:34:45;3.72;;;1.48;;
69629;SDS011;56857;52.212;5.496;2022-08-11T12:37:12;2.95;;;1.40;;
69629;SDS011;56857;52.212;5.496;2022-08-11T12:39:42;6.15;;;1.73;;
69629;SDS011;56857;52.212;5.496;2022-08-11T12:42:12;5.32;;;1.40;;
69629;SDS011;56857;52.212;5.496;2022-08-11T12:44:41;4.50;;;1.60;;
69629;SDS011;56857;52.212;5.496;2022-08-11T12:47:06;4.75;;;1.33;;
69629;SDS011;56857;52.212;5.496;2022-08-11T12:49:34;5.63;;;1.80;;
69629;SDS011;56857;52.212;5.496;2022-08-11T12:52:05;4.53;;;1.50;;
69629;SDS011;56857;52.212;5.496;2022-08-11T12:57:09;4.10;;;1.42;;
69629;SDS011;56857;52.212;5.496;2022-08-11T12:59:38;4.70;;;1.60;;
69629;SDS011;56857;52.212;5.496;2022-08-11T13:02:04;4.90;;;1.55;;
69629;SDS011;56857;52.212;5.496;2022-08-11T13:04:30;4.45;;;1.50;;
69629;SDS011;56857;52.212;5.496;2022-08-11T13:06:56;3.80;;;1.50;;
69629;SDS011;56857;52.212;5.496;2022-08-11T13:09:21;6.28;;;1.50;;
69629;SDS011;56857;52.212;5.496;2022-08-11T13:11:47;5.05;;;1.60;;
69629;SDS011;56857;52.212;5.496;2022-08-11T13:14:12;4.50;;;1.70;;
69629;SDS011;56857;52.212;5.496;2022-08-11T13:16:39;6.13;;;2.35;;
69629;SDS011;56857;52.212;5.496;2022-08-11T13:19:06;5.88;;;1.67;;
69629;SDS011;56857;52.212;5.496;2022-08-11T13:21:31;4.35;;;1.67;;
69629;SDS011;56857;52.212;5.496;2022-08-11T13:23:56;5.28;;;1.50;;
69629;SDS011;56857;52.212;5.496;2022-08-11T13:26:22;3.35;;;1.60;;
69629;SDS011;56857;52.212;5.496;2022-08-11T13:28:48;3.95;;;1.40;;
69629;SDS011;56857;52.212;5.496;2022-08-11T13:31:15;5.40;;;1.60;;
69629;SDS011;56857;52.212;5.496;2022-08-11T13:33:45;4.80;;;1.42;;
69629;SDS011;56857;52.212;5.496;2022-08-11T13:36:13;4.65;;;1.70;;
69629;SDS011;56857;52.212;5.496;2022-08-11T13:38:44;5.00;;;1.60;;
69629;SDS011;56857;52.212;5.496;2022-08-11T13:41:09;3.70;;;1.63;;
69629;SDS011;56857;52.212;5.496;2022-08-11T13:43:35;3.70;;;1.63;;
69629;SDS011;56857;52.212;5.496;2022-08-11T13:46:01;5.68;;;1.63;;
69629;SDS011;56857;52.212;5.496;2022-08-11T13:48:27;5.97;;;2.10;;
69629;SDS011;56857;52.212;5.496;2022-08-11T13:50:52;4.72;;;1.83;;
69629;SDS011;56857;52.212;5.496;2022-08-11T13:53:20;4.75;;;1.73;;
69629;SDS011;56857;52.212;5.496;2022-08-11T13:55:46;4.43;;;1.70;;
69629;SDS011;56857;52.212;5.496;2022-08-11T13:58:13;4.43;;;1.88;;
69629;SDS011;56857;52.212;5.496;2022-08-11T14:00:40;4.18;;;1.55;;
69629;SDS011;56857;52.212;5.496;2022-08-11T14:03:10;7.47;;;1.88;;
69629;SDS011;56857;52.212;5.496;2022-08-11T14:05:42;5.63;;;1.70;;
69629;SDS011;56857;52.212;5.496;2022-08-11T14:08:13;4.63;;;1.80;;
69629;SDS011;56857;52.212;5.496;2022-08-11T14:10:41;4.50;;;1.83;;
69629;SDS011;56857;52.212;5.496;2022-08-11T14:13:09;5.75;;;1.70;;
69629;SDS011;56857;52.212;5.496;2022-08-11T14:15:40;4.45;;;1.90;;
69629;SDS011;56857;52.212;5.496;2022-08-11T14:18:10;8.60;;;2.38;;
69629;SDS011;56857;52.212;5.496;2022-08-11T14:20:41;6.20;;;1.65;;
69629;SDS011;56857;52.212;5.496;2022-08-11T14:23:09;5.20;;;1.73;;
69629;SDS011;56857;52.212;5.496;2022-08-11T14:25:38;4.38;;;1.75;;
69629;SDS011;56857;52.212;5.496;2022-08-11T14:28:04;5.05;;;1.70;;
69629;SDS011;56857;52.212;5.496;2022-08-11T14:30:30;6.32;;;1.90;;
69629;SDS011;56857;52.212;5.496;2022-08-11T14:32:55;5.00;;;1.92;;
69629;SDS011;56857;52.212;5.496;2022-08-11T14:35:21;6.45;;;2.10;;
69629;SDS011;56857;52.212;5.496;2022-08-11T14:37:48;5.70;;;1.80;;
69629;SDS011;56857;52.212;5.496;2022-08-11T14:40:14;8.73;;;1.60;;
69629;SDS011;56857;52.212;5.496;2022-08-11T14:42:40;6.45;;;1.80;;
69629;SDS011;56857;52.212;5.496;2022-08-11T14:45:07;6.63;;;2.00;;
69629;SDS011;56857;52.212;5.496;2022-08-11T14:47:38;5.43;;;2.00;;
69629;SDS011;56857;52.212;5.496;2022-08-11T14:50:06;7.78;;;1.83;;
69629;SDS011;56857;52.212;5.496;2022-08-11T14:52:35;5.38;;;2.10;;
69629;SDS011;56857;52.212;5.496;2022-08-11T14:55:02;8.65;;;1.73;;
69629;SDS011;56857;52.212;5.496;2022-08-11T14:57:29;4.82;;;1.80;;
69629;SDS011;56857;52.212;5.496;2022-08-11T14:59:56;4.40;;;1.50;;
69629;SDS011;56857;52.212;5.496;2022-08-11T15:02:25;6.93;;;1.83;;
69629;SDS011;56857;52.212;5.496;2022-08-11T15:04:52;7.80;;;2.05;;
69629;SDS011;56857;52.212;5.496;2022-08-11T15:07:18;7.10;;;1.90;;
69629;SDS011;56857;52.212;5.496;2022-08-11T15:09:43;5.57;;;1.88;;
69629;SDS011;56857;52.212;5.496;2022-08-11T15:12:09;5.65;;;1.80;;
69629;SDS011;56857;52.212;5.496;2022-08-11T15:14:35;3.67;;;1.50;;
69629;SDS011;56857;52.212;5.496;2022-08-11T15:17:01;4.38;;;1.60;;
69629;SDS011;56857;52.212;5.496;2022-08-11T15:19:28;5.38;;;1.70;;
69629;SDS011;56857;52.212;5.496;2022-08-11T15:21:56;5.97;;;1.85;;
69629;SDS011;56857;52.212;5.496;2022-08-11T15:24:21;4.95;;;1.73;;
69629;SDS011;56857;52.212;5.496;2022-08-11T15:26:47;5.55;;;1.90;;
69629;SDS011;56857;52.212;5.496;2022-08-11T15:29:14;4.95;;;2.00;;
69629;SDS011;56857;52.212;5.496;2022-08-11T15:31:49;6.07;;;2.10;;
69629;SDS011;56857;52.212;5.496;2022-08-11T15:35:08;6.70;;;2.00;;
69629;SDS011;56857;52.212;5.496;2022-08-11T15:37:35;6.95;;;2.03;;
69629;SDS011;56857;52.212;5.496;2022-08-11T15:42:31;4.32;;;1.70;;
69629;SDS011;56857;52.212;5.496;2022-08-11T15:44:59;6.75;;;2.30;;
69629;SDS011;56857;52.212;5.496;2022-08-11T15:47:45;7.82;;;2.00;;
69629;SDS011;56857;52.212;5.496;2022-08-11T15:50:18;8.07;;;2.10;;
69629;SDS011;56857;52.212;5.496;2022-08-11T15:52:48;7.80;;;2.03;;
69629;SDS011;56857;52.212;5.496;2022-08-11T15:55:20;9.60;;;2.10;;
69629;SDS011;56857;52.212;5.496;2022-08-11T15:57:48;6.30;;;1.92;;
69629;SDS011;56857;52.212;5.496;2022-08-11T16:00:14;3.58;;;1.65;;
69629;SDS011;56857;52.212;5.496;2022-08-11T16:02:41;5.82;;;1.90;;
69629;SDS011;56857;52.212;5.496;2022-08-11T16:05:09;6.40;;;1.88;;
69629;SDS011;56857;52.212;5.496;2022-08-11T16:07:38;4.13;;;1.75;;
69629;SDS011;56857;52.212;5.496;2022-08-11T16:10:06;6.22;;;1.70;;
69629;SDS011;56857;52.212;5.496;2022-08-11T16:12:50;8.68;;;1.80;;
69629;SDS011;56857;52.212;5.496;2022-08-11T16:15:22;5.18;;;1.63;;
69629;SDS011;56857;52.212;5.496;2022-08-11T16:17:48;5.35;;;1.98;;
69629;SDS011;56857;52.212;5.496;2022-08-11T16:20:18;5.95;;;2.33;;
69629;SDS011;56857;52.212;5.496;2022-08-11T16:22:45;5.80;;;2.22;;
69629;SDS011;56857;52.212;5.496;2022-08-11T16:25:14;6.63;;;1.90;;
69629;SDS011;56857;52.212;5.496;2022-08-11T16:27:44;5.38;;;1.83;;
69629;SDS011;56857;52.212;5.496;2022-08-11T16:30:12;5.38;;;1.73;;
69629;SDS011;56857;52.212;5.496;2022-08-11T16:32:38;6.82;;;1.88;;
69629;SDS011;56857;52.212;5.496;2022-08-11T16:35:06;5.68;;;1.88;;
69629;SDS011;56857;52.212;5.496;2022-08-11T16:37:35;4.50;;;1.75;;
69629;SDS011;56857;52.212;5.496;2022-08-11T16:40:02;5.03;;;2.00;;
69629;SDS011;56857;52.212;5.496;2022-08-11T16:42:29;5.07;;;1.88;;
69629;SDS011;56857;52.212;5.496;2022-08-11T16:44:56;5.20;;;2.10;;
69629;SDS011;56857;52.212;5.496;2022-08-11T16:47:22;7.13;;;1.95;;
69629;SDS011;56857;52.212;5.496;2022-08-11T16:49:50;5.32;;;1.77;;
69629;SDS011;56857;52.212;5.496;2022-08-11T16:52:20;7.32;;;1.80;;
69629;SDS011;56857;52.212;5.496;2022-08-11T16:54:49;5.32;;;1.90;;
69629;SDS011;56857;52.212;5.496;2022-08-11T16:57:22;4.07;;;2.00;;
69629;SDS011;56857;52.212;5.496;2022-08-11T16:59:50;5.70;;;1.70;;
69629;SDS011;56857;52.212;5.496;2022-08-11T17:02:18;4.65;;;1.90;;
69629;SDS011;56857;52.212;5.496;2022-08-11T17:04:49;4.05;;;1.80;;
69629;SDS011;56857;52.212;5.496;2022-08-11T17:07:19;5.18;;;2.03;;
69629;SDS011;56857;52.212;5.496;2022-08-11T17:09:46;5.10;;;1.90;;
69629;SDS011;56857;52.212;5.496;2022-08-11T17:12:15;5.03;;;1.80;;
69629;SDS011;56857;52.212;5.496;2022-08-11T17:14:50;5.85;;;1.85;;
69629;SDS011;56857;52.212;5.496;2022-08-11T17:17:35;5.32;;;1.67;;
69629;SDS011;56857;52.212;5.496;2022-08-11T17:20:03;6.18;;;1.70;;
69629;SDS011;56857;52.212;5.496;2022-08-11T17:22:31;5.50;;;1.90;;
69629;SDS011;56857;52.212;5.496;2022-08-11T17:25:00;5.35;;;2.15;;
69629;SDS011;56857;52.212;5.496;2022-08-11T17:27:27;3.97;;;1.77;;
69629;SDS011;56857;52.212;5.496;2022-08-11T17:29:56;6.53;;;2.00;;
69629;SDS011;56857;52.212;5.496;2022-08-11T17:32:29;6.45;;;2.20;;
69629;SDS011;56857;52.212;5.496;2022-08-11T17:34:58;8.75;;;2.10;;
69629;SDS011;56857;52.212;5.496;2022-08-11T17:37:30;7.85;;;1.90;;
69629;SDS011;56857;52.212;5.496;2022-08-11T17:39:58;3.28;;;1.60;;
69629;SDS011;56857;52.212;5.496;2022-08-11T17:42:26;6.40;;;1.77;;
69629;SDS011;56857;52.212;5.496;2022-08-11T17:44:53;6.28;;;1.95;;
69629;SDS011;56857;52.212;5.496;2022-08-11T17:47:20;5.53;;;1.80;;
69629;SDS011;56857;52.212;5.496;2022-08-11T17:49:46;8.77;;;2.28;;
69629;SDS011;56857;52.212;5.496;2022-08-11T17:52:14;6.05;;;1.70;;
69629;SDS011;56857;52.212;5.496;2022-08-11T17:54:41;5.75;;;1.92;;
69629;SDS011;56857;52.212;5.496;2022-08-11T17:57:08;3.45;;;1.60;;
69629;SDS011;56857;52.212;5.496;2022-08-11T17:59:34;4.10;;;1.58;;